Panda — PBCS — position and weather

sailwx.info

Track history (hours):
 
Tides and Currents Weather Stations Pressure Air Temp Water Temp Dewpoint Dewpoint Depression Visibility Wind Speed Wind Dir Waves Ship Positions

Panda

Last reported at 2017-May-23 08:30 UTC. Time now 2017-May-23 08:51 UTC.
Position N 56°02' E 014°35'.

Length 89 m; draft 4.5 m.

Type: Cargo ship. MMSI: 245014000.

Date/timePositionNaut miles runAvg speedWind from/ knotsBaromVisibWave heightAir tempDewpointWater temp
2017-May-23 08:30N 56°02' E 014°35'0 0.0
2017-May-23 08:00N 56°02' E 014°35'0 0.0
2017-May-23 07:30N 56°02' E 014°35'0 0.0
2017-May-23 07:00N 56°02' E 014°35'0 0.0
2017-May-23 06:00N 56°02' E 014°35'0 0.0
2017-May-23 05:30N 56°02' E 014°35'0 0.0
2017-May-23 04:57N 56°02' E 014°35'0 0.0
2017-May-23 04:31N 56°02' E 014°35'0 0.0
2017-May-23 04:00N 56°02' E 014°35'0 0.0
2017-May-23 03:30N 56°02' E 014°35'0 0.0
2017-May-23 03:00N 56°02' E 014°35'0 0.0
2017-May-23 02:27N 56°02' E 014°35'0 0.0
2017-May-23 02:00N 56°02' E 014°35'0 0.0
2017-May-23 00:48N 56°02' E 014°35'0 0.0
2017-May-23 00:24N 56°02' E 014°35'0 0.0
2017-May-22 23:42N 56°02' E 014°35'0 0.0
2017-May-22 23:12N 56°02' E 014°35'0 0.0
2017-May-22 22:42N 56°02' E 014°35'0 0.0
2017-May-22 22:18N 56°02' E 014°35'0 0.0
2017-May-22 21:57N 56°02' E 014°35'0 0.0
2017-May-22 21:30N 56°02' E 014°35'0 0.0
2017-May-22 20:54N 56°02' E 014°35'0 0.0
2017-May-22 20:30N 56°02' E 014°35'0 0.0
2017-May-22 17:12N 56°02' E 014°35'0 0.0
2017-May-22 16:57N 56°02' E 014°35'0 0.0
2017-May-22 16:30N 56°02' E 014°35'0 0.0
2017-May-22 16:00N 56°02' E 014°35'0 0.0
2017-May-22 15:27N 56°02' E 014°35'0 0.0
2017-May-22 14:57N 56°02' E 014°35'0 0.0
2017-May-22 14:00N 56°02' E 014°35'0 0.0
2017-May-22 13:30N 56°02' E 014°35'0 0.0
2017-May-22 12:57N 56°02' E 014°35'0 0.0
2017-May-22 12:30N 56°02' E 014°35'0 0.0
2017-May-22 12:00N 56°02' E 014°35'0 0.0
2017-May-22 11:30N 56°02' E 014°35'0 0.0
2017-May-22 11:00N 56°02' E 014°35'0 0.0
2017-May-22 08:21N 56°02' E 014°35'0 0.0
2017-May-22 08:00N 56°02' E 014°35'0 0.0
2017-May-22 07:24N 56°02' E 014°35'0 0.0
2017-May-22 05:06N 56°02' E 014°35'0 0.0
2017-May-22 05:00N 56°02' E 014°35'0 0.0
2017-May-22 04:30N 56°02' E 014°35'0 0.0
2017-May-22 04:00N 56°02' E 014°35'0 0.0
2017-May-22 02:30N 56°02' E 014°35'0 0.0
2017-May-22 02:00N 56°02' E 014°35'0 0.0
2017-May-22 01:30N 56°02' E 014°35'0 0.0
2017-May-22 01:00N 56°02' E 014°35'0 0.0
2017-May-22 00:24N 56°02' E 014°35'0 0.0
2017-May-22 00:00N 56°02' E 014°35'0 0.0
2017-May-21 23:29N 56°02' E 014°35'0 0.0
2017-May-21 22:59N 56°02' E 014°35'0 0.0
2017-May-21 22:26N 56°02' E 014°35'0 0.0
2017-May-21 21:59N 56°02' E 014°35'0 0.0
2017-May-21 21:23N 56°02' E 014°35'0 0.0
2017-May-21 20:53N 56°02' E 014°35'0 0.0
2017-May-21 16:44N 56°02' E 014°35'0 0.0
2017-May-21 11:44N 56°02' E 014°35'0 0.0
2017-May-21 08:43N 56°02' E 014°35'0 0.5
2017-May-21 08:30N 56°02' E 014°35'4 6.2
2017-May-21 07:54N 55°58' E 014°35'4 9.2
2017-May-21 07:29N 55°54' E 014°36'5 9.2
2017-May-21 06:59N 55°50' E 014°37'5 9.3
2017-May-21 06:30N 55°45' E 014°37'5 9.6
2017-May-21 05:57N 55°40' E 014°37'4 8.4
2017-May-21 05:30N 55°36' E 014°38'4 8.5
2017-May-21 05:00N 55°32' E 014°38'4 8.6
2017-May-21 04:30N 55°28' E 014°38'4 8.3
2017-May-21 04:00N 55°24' E 014°37'4 8.7
2017-May-21 03:30N 55°20' E 014°33'4 8.5
2017-May-21 03:00N 55°17' E 014°28'4 8.9
2017-May-21 02:30N 55°13' E 014°23'4 8.5
2017-May-21 02:00N 55°11' E 014°17'5 9.1
2017-May-21 01:29N 55°11' E 014°09'4 8.9
2017-May-21 01:01N 55°11' E 014°01'5 9.0
2017-May-21 00:30N 55°12' E 013°53'5 8.8
2017-May-20 23:56N 55°12' E 013°45'4 8.5
2017-May-20 23:29N 55°12' E 013°38'4 8.8
2017-May-20 23:00N 55°13' E 013°31'4 8.7
2017-May-20 22:30N 55°14' E 013°23'4 8.8
2017-May-20 22:00N 55°14' E 013°16'4 8.8
2017-May-20 21:30N 55°14' E 013°08'4 8.8
2017-May-20 21:00N 55°15' E 013°00'4 8.7
2017-May-20 20:30N 55°15' E 012°52'4 8.7
2017-May-20 20:00N 55°16' E 012°45'4 8.7
2017-May-20 19:31N 55°18' E 012°38'4 8.9
2017-May-20 19:00N 55°23' E 012°39'5 9.0
2017-May-20 18:30N 55°27' E 012°41'5 9.3
2017-May-20 18:00N 55°32' E 012°42'510.8
2017-May-20 17:30N 55°37' E 012°42'510.6
2017-May-20 17:00N 55°42' E 012°41'5 9.8
2017-May-20 16:30N 55°47' E 012°40'5 9.7
2017-May-20 16:00N 55°52' E 012°39'5 9.8
2017-May-20 15:30N 55°57' E 012°38'510.0
2017-May-20 15:00N 56°02' E 012°38'5 9.7
2017-May-20 14:30N 56°06' E 012°33'64 9.1
2017-May-20 07:29N 57°02' E 011°37'4 8.9
2017-May-20 06:59N 57°06' E 011°34'5 9.6
2017-May-20 06:30N 57°10' E 011°30'5 9.4
2017-May-20 05:59N 57°14' E 011°26'4 8.5
2017-May-20 05:30N 57°18' E 011°22'4 8.6
2017-May-20 05:00N 57°22' E 011°19'4 8.5
2017-May-20 04:30N 57°26' E 011°16'4 8.3
2017-May-20 04:00N 57°29' E 011°11'4 8.8
2017-May-20 03:30N 57°32' E 011°06'5 9.0
2017-May-20 03:00N 57°36' E 011°01'4 8.9
2017-May-20 02:30N 57°39' E 010°56'4 8.9
2017-May-20 02:00N 57°43' E 010°51'5 9.1
2017-May-20 01:30N 57°46' E 010°45'5 9.4
2017-May-20 01:00N 57°46' E 010°36'5 9.9
2017-May-20 00:30N 57°45' E 010°27'5 9.6
2017-May-20 00:00N 57°43' E 010°19'5 9.2
2017-May-19 23:30N 57°41' E 010°11'9 9.0
2017-May-19 22:29N 57°38' E 009°55'4 8.9
2017-May-19 22:00N 57°35' E 009°49'5 8.9
2017-May-19 21:30N 57°33' E 009°42'4 8.9
2017-May-19 21:00N 57°31' E 009°35'4 8.8
2017-May-19 20:30N 57°28' E 009°28'4 8.9
2017-May-19 20:00N 57°26' E 009°21'4 8.8
2017-May-19 19:30N 57°24' E 009°14'4 8.8
2017-May-19 19:00N 57°21' E 009°07'4 8.8
2017-May-19 18:30N 57°19' E 008°60'4 8.8
2017-May-19 18:00N 57°17' E 008°53'96 8.7
2017-May-19 06:58N 55°59' E 007°11'5 9.1
2017-May-19 06:27N 55°55' E 007°06'510.1
2017-May-19 06:00N 55°51' E 007°02'4 9.0
2017-May-19 05:30N 55°47' E 006°58'5 9.0
2017-May-19 04:59N 55°43' E 006°54'4 8.9
2017-May-19 04:30N 55°40' E 006°50'5 8.9
2017-May-19 03:56N 55°35' E 006°45'5 8.9
2017-May-19 03:25N 55°32' E 006°40'6 8.8
2017-May-19 02:46N 55°27' E 006°35'2 8.8
2017-May-19 02:30N 55°25' E 006°33'4 8.8
2017-May-19 02:00N 55°21' E 006°29'4 8.8
2017-May-19 01:30N 55°17' E 006°25'24 9.0
2017-May-18 22:50N 54°57' E 006°03'3 9.2
2017-May-18 22:29N 54°54' E 005°60'4 9.2
2017-May-18 22:00N 54°50' E 005°56'5 9.2
2017-May-18 21:30N 54°46' E 005°51'5 9.1
2017-May-18 20:59N 54°42' E 005°47'6 9.0
2017-May-18 20:21N 54°38' E 005°42'99 9.2
2017-May-18 09:38N 53°08' E 004°30'110.5
2017-May-18 09:29N 53°07' E 004°29'510.6
2017-May-18 08:59N 53°02' E 004°25'510.4
2017-May-18 08:30N 52°58' E 004°20'510.4
2017-May-18 08:00N 52°53' E 004°16'510.5
2017-May-18 07:30N 52°49' E 004°12'510.5
2017-May-18 07:00N 52°44' E 004°08'510.9
2017-May-18 06:30N 52°40' E 004°02'611.3
2017-May-18 06:00N 52°36' E 003°55'85 9.0
2017-May-17 20:33N 51°33' E 002°22'3 9.7
2017-May-17 20:14N 51°31' E 002°19'3 9.7
2017-May-17 19:58N 51°29' E 002°17'510.2
2017-May-17 19:30N 51°24' E 002°13'510.0
2017-May-17 19:00N 51°20' E 002°09'510.4
2017-May-17 18:30N 51°16' E 002°05'510.6
2017-May-17 18:00N 51°12' E 001°59'510.9
2017-May-17 17:30N 51°08' E 001°52'611.1
2017-May-17 17:00N 51°05' E 001°46'611.5
2017-May-17 16:30N 51°00' E 001°39'612.0
2017-May-17 16:00N 50°56' E 001°33'611.4
2017-May-17 15:30N 50°52' E 001°27'510.5
2017-May-17 15:00N 50°47' E 001°23'1010.4
2017-May-17 14:00N 50°39' E 001°12'1310.6
2017-May-17 12:49N 50°32' E 000°56'2110.6
2017-May-17 10:49N 50°25' E 000°24'310.4
2017-May-17 10:30N 50°24' E 000°19'510.2
2017-May-17 10:00N 50°23' E 000°12'5 9.8
2017-May-17 09:30N 50°22' E 000°04'5 9.5
2017-May-17 09:00N 50°21' W 000°03'5 9.2
2017-May-17 08:30N 50°20' W 000°10'5 9.1
2017-May-17 08:00N 50°20' W 000°17'4 8.7
2017-May-17 07:30N 50°20' W 000°24'4 8.4
2017-May-17 07:00N 50°20' W 000°31'5 8.9
2017-May-17 06:23N 50°19' W 000°39'3 8.3
2017-May-17 06:00N 50°19' W 000°44'4 7.9
2017-May-17 05:30N 50°19' W 000°50'66 9.5
2017-May-16 22:34N 50°14' W 002°33'110.7
2017-May-16 22:27N 50°14' W 002°35'710.5
2017-May-16 21:49N 50°14' W 002°46'310.2
2017-May-16 21:28N 50°13' W 002°51'510.0
2017-May-16 21:00N 50°13' W 002°59'5 9.7
2017-May-16 20:30N 50°13' W 003°06'5 9.4
2017-May-16 20:00N 50°12' W 003°13'5 9.4
2017-May-16 19:30N 50°12' W 003°21'5 9.2
2017-May-16 19:00N 50°11' W 003°28'5 9.0
2017-May-16 18:30N 50°11' W 003°35'4 8.5
2017-May-16 18:00N 50°11' W 003°42'4 8.0
2017-May-16 17:30N 50°11' W 003°48'4 8.2
2017-May-16 16:58N 50°13' W 003°54'4 8.7
2017-May-16 16:30N 50°15' W 003°60'4 8.9
2017-May-16 16:00N 50°17' W 004°06'4 8.1
2017-May-16 15:30N 50°20' W 004°10'3 0.4
2017-May-16 08:02N 50°22' W 004°08'0 0.0
2017-May-16 07:50N 50°22' W 004°08'0 0.0
2017-May-15 19:07N 50°22' W 004°08'0 0.0
2017-May-14 20:28N 50°22' W 004°08'0 0.0
2017-May-13 18:45N 50°22' W 004°08'0 0.0
2017-May-13 18:18N 50°22' W 004°08'0 0.0
2017-May-13 17:00N 50°22' W 004°08'0 0.0
2017-May-13 16:30N 50°22' W 004°08'0 0.0
2017-May-13 16:00N 50°22' W 004°08'0 0.0
2017-May-13 15:30N 50°22' W 004°08'0 0.0
2017-May-13 15:00N 50°22' W 004°08'0 0.0
2017-May-13 14:30N 50°22' W 004°08'0 0.0
2017-May-13 13:30N 50°22' W 004°08'0 0.0
2017-May-13 13:00N 50°22' W 004°08'0 0.0
2017-May-13 12:30N 50°22' W 004°08'0 0.0
2017-May-13 12:00N 50°22' W 004°08'0 0.0
2017-May-13 11:30N 50°22' W 004°08'0 0.0
2017-May-13 11:00N 50°22' W 004°08'0 0.0
2017-May-13 10:30N 50°22' W 004°08'0 0.0
2017-May-13 10:00N 50°22' W 004°08'0 0.0
2017-May-13 09:30N 50°22' W 004°08'0 0.0
2017-May-13 09:00N 50°22' W 004°08'0 0.1
2017-May-13 08:30N 50°22' W 004°08'  
Track history (hours):
 
Tides and Currents Weather Stations Pressure Air Temp Water Temp Dewpoint Dewpoint Depression Visibility Wind Speed Wind Dir Waves Ship Positions

Panda

Last reported at 2017-May-23 08:30 UTC. Time now 2017-May-23 08:52 UTC.
Position N 56°02' E 014°35'.

Length 89 m; draft 4.5 m.

Type: Cargo ship. MMSI: 245014000.

Date/timePositionNaut miles runAvg speedWind from/ knotsBaromVisibWave heightAir tempDewpointWater temp
2017-May-23 08:30N 56°02' E 014°35'0 0.0
2017-May-23 08:00N 56°02' E 014°35'0 0.0
2017-May-23 07:30N 56°02' E 014°35'0 0.0
2017-May-23 07:00N 56°02' E 014°35'0 0.0
2017-May-23 06:00N 56°02' E 014°35'0 0.0
2017-May-23 05:30N 56°02' E 014°35'0 0.0
2017-May-23 04:57N 56°02' E 014°35'0 0.0
2017-May-23 04:31N 56°02' E 014°35'0 0.0
2017-May-23 04:00N 56°02' E 014°35'0 0.0
2017-May-23 03:30N 56°02' E 014°35'0 0.0
2017-May-23 03:00N 56°02' E 014°35'0 0.0
2017-May-23 02:27N 56°02' E 014°35'0 0.0
2017-May-23 02:00N 56°02' E 014°35'0 0.0
2017-May-23 00:48N 56°02' E 014°35'0 0.0
2017-May-23 00:24N 56°02' E 014°35'0 0.0
2017-May-22 23:42N 56°02' E 014°35'0 0.0
2017-May-22 23:12N 56°02' E 014°35'0 0.0
2017-May-22 22:42N 56°02' E 014°35'0 0.0
2017-May-22 22:18N 56°02' E 014°35'0 0.0
2017-May-22 21:57N 56°02' E 014°35'0 0.0
2017-May-22 21:30N 56°02' E 014°35'0 0.0
2017-May-22 20:54N 56°02' E 014°35'0 0.0
2017-May-22 20:30N 56°02' E 014°35'0 0.0
2017-May-22 17:12N 56°02' E 014°35'0 0.0
2017-May-22 16:57N 56°02' E 014°35'0 0.0
2017-May-22 16:30N 56°02' E 014°35'0 0.0
2017-May-22 16:00N 56°02' E 014°35'0 0.0
2017-May-22 15:27N 56°02' E 014°35'0 0.0
2017-May-22 14:57N 56°02' E 014°35'0 0.0
2017-May-22 14:00N 56°02' E 014°35'0 0.0
2017-May-22 13:30N 56°02' E 014°35'0 0.0
2017-May-22 12:57N 56°02' E 014°35'0 0.0
2017-May-22 12:30N 56°02' E 014°35'0 0.0
2017-May-22 12:00N 56°02' E 014°35'0 0.0
2017-May-22 11:30N 56°02' E 014°35'0 0.0
2017-May-22 11:00N 56°02' E 014°35'0 0.0
2017-May-22 08:21N 56°02' E 014°35'0 0.0
2017-May-22 08:00N 56°02' E 014°35'0 0.0
2017-May-22 07:24N 56°02' E 014°35'0 0.0
2017-May-22 05:06N 56°02' E 014°35'0 0.0
2017-May-22 05:00N 56°02' E 014°35'0 0.0
2017-May-22 04:30N 56°02' E 014°35'0 0.0
2017-May-22 04:00N 56°02' E 014°35'0 0.0
2017-May-22 02:30N 56°02' E 014°35'0 0.0
2017-May-22 02:00N 56°02' E 014°35'0 0.0
2017-May-22 01:30N 56°02' E 014°35'0 0.0
2017-May-22 01:00N 56°02' E 014°35'0 0.0
2017-May-22 00:24N 56°02' E 014°35'0 0.0
2017-May-22 00:00N 56°02' E 014°35'0 0.0
2017-May-21 23:29N 56°02' E 014°35'0 0.0
2017-May-21 22:59N 56°02' E 014°35'0 0.0
2017-May-21 22:26N 56°02' E 014°35'0 0.0
2017-May-21 21:59N 56°02' E 014°35'0 0.0
2017-May-21 21:23N 56°02' E 014°35'0 0.0
2017-May-21 20:53N 56°02' E 014°35'0 0.0
2017-May-21 16:44N 56°02' E 014°35'0 0.0
2017-May-21 11:44N 56°02' E 014°35'0 0.0
2017-May-21 08:43N 56°02' E 014°35'0 0.5
2017-May-21 08:30N 56°02' E 014°35'4 6.2
2017-May-21 07:54N 55°58' E 014°35'4 9.2
2017-May-21 07:29N 55°54' E 014°36'5 9.2
2017-May-21 06:59N 55°50' E 014°37'5 9.3
2017-May-21 06:30N 55°45' E 014°37'5 9.6
2017-May-21 05:57N 55°40' E 014°37'4 8.4
2017-May-21 05:30N 55°36' E 014°38'4 8.5
2017-May-21 05:00N 55°32' E 014°38'4 8.6
2017-May-21 04:30N 55°28' E 014°38'4 8.3
2017-May-21 04:00N 55°24' E 014°37'4 8.7
2017-May-21 03:30N 55°20' E 014°33'4 8.5
2017-May-21 03:00N 55°17' E 014°28'4 8.9
2017-May-21 02:30N 55°13' E 014°23'4 8.5
2017-May-21 02:00N 55°11' E 014°17'5 9.1
2017-May-21 01:29N 55°11' E 014°09'4 8.9
2017-May-21 01:01N 55°11' E 014°01'5 9.0
2017-May-21 00:30N 55°12' E 013°53'5 8.8
2017-May-20 23:56N 55°12' E 013°45'4 8.5
2017-May-20 23:29N 55°12' E 013°38'4 8.8
2017-May-20 23:00N 55°13' E 013°31'4 8.7
2017-May-20 22:30N 55°14' E 013°23'4 8.8
2017-May-20 22:00N 55°14' E 013°16'4 8.8
2017-May-20 21:30N 55°14' E 013°08'4 8.8
2017-May-20 21:00N 55°15' E 013°00'4 8.7
2017-May-20 20:30N 55°15' E 012°52'4 8.7
2017-May-20 20:00N 55°16' E 012°45'4 8.7
2017-May-20 19:31N 55°18' E 012°38'4 8.9
2017-May-20 19:00N 55°23' E 012°39'5 9.0
2017-May-20 18:30N 55°27' E 012°41'5 9.3
2017-May-20 18:00N 55°32' E 012°42'510.8
2017-May-20 17:30N 55°37' E 012°42'510.6
2017-May-20 17:00N 55°42' E 012°41'5 9.8
2017-May-20 16:30N 55°47' E 012°40'5 9.7
2017-May-20 16:00N 55°52' E 012°39'5 9.8
2017-May-20 15:30N 55°57' E 012°38'510.0
2017-May-20 15:00N 56°02' E 012°38'5 9.7
2017-May-20 14:30N 56°06' E 012°33'64 9.1
2017-May-20 07:29N 57°02' E 011°37'4 8.9
2017-May-20 06:59N 57°06' E 011°34'5 9.6
2017-May-20 06:30N 57°10' E 011°30'5 9.4
2017-May-20 05:59N 57°14' E 011°26'4 8.5
2017-May-20 05:30N 57°18' E 011°22'4 8.6
2017-May-20 05:00N 57°22' E 011°19'4 8.5
2017-May-20 04:30N 57°26' E 011°16'4 8.3
2017-May-20 04:00N 57°29' E 011°11'4 8.8
2017-May-20 03:30N 57°32' E 011°06'5 9.0
2017-May-20 03:00N 57°36' E 011°01'4 8.9
2017-May-20 02:30N 57°39' E 010°56'4 8.9
2017-May-20 02:00N 57°43' E 010°51'5 9.1
2017-May-20 01:30N 57°46' E 010°45'5 9.4
2017-May-20 01:00N 57°46' E 010°36'5 9.9
2017-May-20 00:30N 57°45' E 010°27'5 9.6
2017-May-20 00:00N 57°43' E 010°19'5 9.2
2017-May-19 23:30N 57°41' E 010°11'9 9.0
2017-May-19 22:29N 57°38' E 009°55'4 8.9
2017-May-19 22:00N 57°35' E 009°49'5 8.9
2017-May-19 21:30N 57°33' E 009°42'4 8.9
2017-May-19 21:00N 57°31' E 009°35'4 8.8
2017-May-19 20:30N 57°28' E 009°28'4 8.9
2017-May-19 20:00N 57°26' E 009°21'4 8.8
2017-May-19 19:30N 57°24' E 009°14'4 8.8
2017-May-19 19:00N 57°21' E 009°07'4 8.8
2017-May-19 18:30N 57°19' E 008°60'4 8.8
2017-May-19 18:00N 57°17' E 008°53'96 8.7
2017-May-19 06:58N 55°59' E 007°11'5 9.1
2017-May-19 06:27N 55°55' E 007°06'510.1
2017-May-19 06:00N 55°51' E 007°02'4 9.0
2017-May-19 05:30N 55°47' E 006°58'5 9.0
2017-May-19 04:59N 55°43' E 006°54'4 8.9
2017-May-19 04:30N 55°40' E 006°50'5 8.9
2017-May-19 03:56N 55°35' E 006°45'5 8.9
2017-May-19 03:25N 55°32' E 006°40'6 8.8
2017-May-19 02:46N 55°27' E 006°35'2 8.8
2017-May-19 02:30N 55°25' E 006°33'4 8.8
2017-May-19 02:00N 55°21' E 006°29'4 8.8
2017-May-19 01:30N 55°17' E 006°25'24 9.0
2017-May-18 22:50N 54°57' E 006°03'3 9.2
2017-May-18 22:29N 54°54' E 005°60'4 9.2
2017-May-18 22:00N 54°50' E 005°56'5 9.2
2017-May-18 21:30N 54°46' E 005°51'5 9.1
2017-May-18 20:59N 54°42' E 005°47'6 9.0
2017-May-18 20:21N 54°38' E 005°42'99 9.2
2017-May-18 09:38N 53°08' E 004°30'110.5
2017-May-18 09:29N 53°07' E 004°29'510.6
2017-May-18 08:59N 53°02' E 004°25'510.4
2017-May-18 08:30N 52°58' E 004°20'510.4
2017-May-18 08:00N 52°53' E 004°16'510.5
2017-May-18 07:30N 52°49' E 004°12'510.5
2017-May-18 07:00N 52°44' E 004°08'510.9
2017-May-18 06:30N 52°40' E 004°02'611.3
2017-May-18 06:00N 52°36' E 003°55'85 9.0
2017-May-17 20:33N 51°33' E 002°22'3 9.7
2017-May-17 20:14N 51°31' E 002°19'3 9.7
2017-May-17 19:58N 51°29' E 002°17'510.2
2017-May-17 19:30N 51°24' E 002°13'510.0
2017-May-17 19:00N 51°20' E 002°09'510.4
2017-May-17 18:30N 51°16' E 002°05'510.6
2017-May-17 18:00N 51°12' E 001°59'510.9
2017-May-17 17:30N 51°08' E 001°52'611.1
2017-May-17 17:00N 51°05' E 001°46'611.5
2017-May-17 16:30N 51°00' E 001°39'612.0
2017-May-17 16:00N 50°56' E 001°33'611.4
2017-May-17 15:30N 50°52' E 001°27'510.5
2017-May-17 15:00N 50°47' E 001°23'1010.4
2017-May-17 14:00N 50°39' E 001°12'1310.6
2017-May-17 12:49N 50°32' E 000°56'2110.6
2017-May-17 10:49N 50°25' E 000°24'310.4
2017-May-17 10:30N 50°24' E 000°19'510.2
2017-May-17 10:00N 50°23' E 000°12'5 9.8
2017-May-17 09:30N 50°22' E 000°04'5 9.5
2017-May-17 09:00N 50°21' W 000°03'5 9.2
2017-May-17 08:30N 50°20' W 000°10'5 9.1
2017-May-17 08:00N 50°20' W 000°17'4 8.7
2017-May-17 07:30N 50°20' W 000°24'4 8.4
2017-May-17 07:00N 50°20' W 000°31'5 8.9
2017-May-17 06:23N 50°19' W 000°39'3 8.3
2017-May-17 06:00N 50°19' W 000°44'4 7.9
2017-May-17 05:30N 50°19' W 000°50'66 9.5
2017-May-16 22:34N 50°14' W 002°33'110.7
2017-May-16 22:27N 50°14' W 002°35'710.5
2017-May-16 21:49N 50°14' W 002°46'310.2
2017-May-16 21:28N 50°13' W 002°51'510.0
2017-May-16 21:00N 50°13' W 002°59'5 9.7
2017-May-16 20:30N 50°13' W 003°06'5 9.4
2017-May-16 20:00N 50°12' W 003°13'5 9.4
2017-May-16 19:30N 50°12' W 003°21'5 9.2
2017-May-16 19:00N 50°11' W 003°28'5 9.0
2017-May-16 18:30N 50°11' W 003°35'4 8.5
2017-May-16 18:00N 50°11' W 003°42'4 8.0
2017-May-16 17:30N 50°11' W 003°48'4 8.2
2017-May-16 16:58N 50°13' W 003°54'4 8.7
2017-May-16 16:30N 50°15' W 003°60'4 8.9
2017-May-16 16:00N 50°17' W 004°06'4 8.1
2017-May-16 15:30N 50°20' W 004°10'3 0.4
2017-May-16 08:02N 50°22' W 004°08'0 0.0
2017-May-16 07:50N 50°22' W 004°08'0 0.0
2017-May-15 19:07N 50°22' W 004°08'0 0.0
2017-May-14 20:28N 50°22' W 004°08'0 0.0
2017-May-13 18:45N 50°22' W 004°08'0 0.0
2017-May-13 18:18N 50°22' W 004°08'0 0.0
2017-May-13 17:00N 50°22' W 004°08'0 0.0
2017-May-13 16:30N 50°22' W 004°08'0 0.0
2017-May-13 16:00N 50°22' W 004°08'0 0.0
2017-May-13 15:30N 50°22' W 004°08'0 0.0
2017-May-13 15:00N 50°22' W 004°08'0 0.0
2017-May-13 14:30N 50°22' W 004°08'0 0.0
2017-May-13 13:30N 50°22' W 004°08'0 0.0
2017-May-13 13:00N 50°22' W 004°08'0 0.0
2017-May-13 12:30N 50°22' W 004°08'0 0.0
2017-May-13 12:00N 50°22' W 004°08'0 0.0
2017-May-13 11:30N 50°22' W 004°08'0 0.0
2017-May-13 11:00N 50°22' W 004°08'0 0.0
2017-May-13 10:30N 50°22' W 004°08'0 0.0
2017-May-13 10:00N 50°22' W 004°08'0 0.0
2017-May-13 09:30N 50°22' W 004°08'0 0.0
2017-May-13 09:00N 50°22' W 004°08'0 0.1
2017-May-13 08:30N 50°22' W 004°08'  

Dump ship's entire track history